createdAt,value
2017-11-23T00:00:34.881Z,0
2017-11-23T00:01:34.874Z,0
2017-11-23T00:02:34.863Z,0
2017-11-23T00:03:34.825Z,0
2017-11-23T00:04:34.815Z,0
2017-11-23T00:05:34.825Z,0
2017-11-23T00:06:34.778Z,0
2017-11-23T00:07:34.811Z,0
2017-11-23T00:08:34.769Z,0
2017-11-23T00:09:34.504Z,0
2017-11-23T00:10:34.745Z,0
2017-11-23T00:11:34.746Z,0
2017-11-23T00:12:34.687Z,0
2017-11-23T00:13:34.675Z,0
2017-11-23T00:14:34.645Z,0
2017-11-23T00:15:34.702Z,0
2017-11-23T00:16:34.405Z,0
2017-11-23T00:17:34.652Z,0
2017-11-23T00:18:34.612Z,0
2017-11-23T00:19:34.657Z,0
2017-11-23T00:20:34.598Z,0
2017-11-23T00:21:34.334Z,0
2017-11-23T00:22:34.591Z,0
2017-11-23T00:23:34.338Z,0
2017-11-23T00:24:34.580Z,0
2017-11-23T00:25:34.543Z,0
2017-11-23T00:26:34.529Z,0
2017-11-23T00:27:34.233Z,0
2017-11-23T00:28:34.505Z,0
2017-11-23T00:29:34.224Z,0
2017-11-23T00:30:34.494Z,0
2017-11-23T00:31:33.973Z,0
2017-11-23T00:32:34.424Z,0
2017-11-23T00:33:34.408Z,0
2017-11-23T00:34:34.161Z,0
2017-11-23T00:35:34.394Z,0
2017-11-23T00:36:34.416Z,0
2017-11-23T00:37:34.377Z,0
2017-11-23T00:38:34.380Z,0
2017-11-23T00:39:34.358Z,0
2017-11-23T00:40:34.091Z,0
2017-11-23T00:41:34.054Z,0
2017-11-23T00:42:34.039Z,0
2017-11-23T00:43:34.273Z,0
2017-11-23T00:44:34.287Z,0
2017-11-23T00:45:34.018Z,0
2017-11-23T00:46:34.272Z,0
2017-11-23T00:47:33.966Z,0
2017-11-23T00:48:34.232Z,0
2017-11-23T00:49:34.186Z,0
2017-11-23T00:50:34.189Z,0
2017-11-23T00:51:33.645Z,0
2017-11-23T00:52:34.187Z,0
2017-11-23T00:53:33.910Z,0
2017-11-23T00:54:34.171Z,0
2017-11-23T00:55:34.302Z,0
2017-11-23T00:56:33.987Z,0
2017-11-23T00:57:34.272Z,0
2017-11-23T00:58:34.286Z,0
2017-11-23T00:59:33.976Z,0
2017-11-23T01:00:34.665Z,0
2017-11-23T01:01:34.214Z,0
2017-11-23T01:02:34.243Z,0
2017-11-23T01:03:34.360Z,0
2017-11-23T01:04:34.185Z,0
2017-11-23T01:05:34.345Z,0
2017-11-23T01:06:34.079Z,0
2017-11-23T01:07:33.981Z,0
2017-11-23T01:08:34.001Z,0
2017-11-23T01:09:33.938Z,0
2017-11-23T01:10:34.191Z,0
2017-11-23T01:11:33.674Z,0
2017-11-23T01:12:33.889Z,0
2017-11-23T01:13:33.892Z,0
2017-11-23T01:14:33.629Z,0
2017-11-23T01:15:33.609Z,0
2017-11-23T01:16:33.325Z,0
2017-11-23T01:17:33.838Z,0
2017-11-23T01:18:33.950Z,0
2017-11-23T01:19:33.563Z,0
2017-11-23T01:20:33.519Z,0
2017-11-23T01:21:33.786Z,0
2017-11-23T01:22:33.771Z,0
2017-11-23T01:23:33.766Z,0
2017-11-23T01:24:33.748Z,0
2017-11-23T01:25:33.746Z,0
2017-11-23T01:26:33.723Z,0
2017-11-23T01:27:33.726Z,0
2017-11-23T01:28:33.698Z,0
2017-11-23T01:29:33.686Z,0
2017-11-23T01:30:33.694Z,0
2017-11-23T01:31:33.408Z,0
2017-11-23T01:32:33.642Z,0
2017-11-23T01:33:33.370Z,0
2017-11-23T01:34:33.610Z,0
2017-11-23T01:35:33.643Z,0
2017-11-23T01:36:33.556Z,0
2017-11-23T01:37:33.588Z,0
2017-11-23T01:38:33.335Z,0
2017-11-23T01:39:33.544Z,0
2017-11-23T01:40:33.272Z,0
2017-11-23T01:41:33.509Z,0
2017-11-23T01:42:33.249Z,0
2017-11-23T01:43:33.485Z,0
2017-11-23T01:44:32.947Z,0
2017-11-23T01:45:33.483Z,0
2017-11-23T01:46:33.443Z,0
2017-11-23T01:47:32.935Z,0
2017-11-23T01:48:33.441Z,0
2017-11-23T01:49:33.415Z,0
2017-11-23T01:50:33.426Z,0
2017-11-23T01:51:33.145Z,0
2017-11-23T01:52:33.381Z,0
2017-11-23T01:53:33.099Z,0
2017-11-23T01:54:33.351Z,0
2017-11-23T01:55:33.330Z,0
2017-11-23T01:56:32.813Z,0
2017-11-23T01:57:33.310Z,0
2017-11-23T01:58:33.297Z,0
2017-11-23T01:59:33.285Z,0
2017-11-23T02:00:33.031Z,0
2017-11-23T02:01:33.029Z,0
2017-11-23T02:02:33.254Z,0
2017-11-23T02:03:32.973Z,0
2017-11-23T02:04:33.218Z,0
2017-11-23T02:05:33.260Z,0
2017-11-23T02:06:33.175Z,0
2017-11-23T02:07:33.172Z,0
2017-11-23T02:08:33.150Z,0
2017-11-23T02:09:33.190Z,0
2017-11-23T02:10:33.154Z,0
2017-11-23T02:11:33.139Z,0
2017-11-23T02:12:33.109Z,0
2017-11-23T02:13:33.096Z,0
2017-11-23T02:14:32.822Z,0
2017-11-23T02:15:32.831Z,0
2017-11-23T02:16:33.060Z,0
2017-11-23T02:17:33.038Z,0
2017-11-23T02:18:32.771Z,0
2017-11-23T02:19:33.037Z,0
2017-11-23T02:20:33.005Z,0
2017-11-23T02:21:32.999Z,0
2017-11-23T02:22:32.712Z,0
2017-11-23T02:23:32.981Z,0
2017-11-23T02:24:32.961Z,0
2017-11-23T02:25:32.994Z,0
2017-11-23T02:26:32.665Z,0
2017-11-23T02:27:32.955Z,0
2017-11-23T02:28:32.618Z,0
2017-11-23T02:29:32.642Z,0
2017-11-23T02:30:32.863Z,0
2017-11-23T02:31:32.889Z,0
2017-11-23T02:32:32.936Z,0
2017-11-23T02:33:32.845Z,0
2017-11-23T02:34:32.856Z,0
2017-11-23T02:35:32.284Z,0
2017-11-23T02:36:32.283Z,0
2017-11-23T02:37:32.250Z,0
2017-11-23T02:38:32.809Z,0
2017-11-23T02:39:32.759Z,0
2017-11-23T02:40:32.738Z,0
2017-11-23T02:41:32.718Z,0
2017-11-23T02:42:32.739Z,0
2017-11-23T02:43:32.466Z,0
2017-11-23T02:44:32.754Z,0
2017-11-23T02:45:32.679Z,0
2017-11-23T02:46:32.679Z,0
2017-11-23T02:47:32.671Z,0
2017-11-23T02:48:32.393Z,0
2017-11-23T02:49:32.637Z,0
2017-11-23T02:50:32.610Z,0
2017-11-23T02:51:32.582Z,0
2017-11-23T02:52:32.602Z,0
2017-11-23T02:53:32.594Z,0
2017-11-23T02:54:32.589Z,0
2017-11-23T02:55:32.290Z,0
2017-11-23T02:56:32.532Z,0
2017-11-23T02:57:32.489Z,0
2017-11-23T02:58:32.523Z,0
2017-11-23T02:59:32.477Z,0
2017-11-23T03:00:32.541Z,0
2017-11-23T03:01:32.452Z,0
2017-11-23T03:02:32.451Z,0
2017-11-23T03:03:32.168Z,0
2017-11-23T03:04:32.433Z,0
2017-11-23T03:05:32.425Z,0
2017-11-23T03:06:32.406Z,0
2017-11-23T03:07:32.409Z,0
2017-11-23T03:08:32.365Z,0
2017-11-23T03:09:32.116Z,0
2017-11-23T03:10:32.359Z,0
2017-11-23T03:11:32.342Z,0
2017-11-23T03:12:32.065Z,0
2017-11-23T03:13:32.032Z,0
2017-11-23T03:14:32.045Z,0
2017-11-23T03:15:32.282Z,0
2017-11-23T03:16:32.017Z,0
2017-11-23T03:17:32.252Z,0
2017-11-23T03:18:32.252Z,0
2017-11-23T03:19:32.223Z,0
2017-11-23T03:20:32.199Z,0
2017-11-23T03:21:32.196Z,0
2017-11-23T03:22:32.206Z,0
2017-11-23T03:23:32.189Z,0
2017-11-23T03:24:32.176Z,0
2017-11-23T03:25:32.172Z,0
2017-11-23T03:26:31.875Z,0
2017-11-23T03:27:32.143Z,0
2017-11-23T03:28:32.103Z,0
2017-11-23T03:29:31.849Z,0
2017-11-23T03:30:32.105Z,0
2017-11-23T03:31:31.809Z,0
2017-11-23T03:32:31.789Z,0
2017-11-23T03:33:32.063Z,0
2017-11-23T03:34:32.034Z,0
2017-11-23T03:35:31.771Z,0
2017-11-23T03:36:31.482Z,0
2017-11-23T03:37:31.733Z,0
2017-11-23T03:38:31.994Z,0
2017-11-23T03:39:31.719Z,0
2017-11-23T03:40:31.960Z,0
2017-11-23T03:41:31.953Z,0
2017-11-23T03:42:31.665Z,0
2017-11-23T03:43:31.941Z,0
2017-11-23T03:44:31.915Z,0
2017-11-23T03:45:31.630Z,0
2017-11-23T03:46:31.867Z,0
2017-11-23T03:47:31.879Z,0
2017-11-23T03:48:31.859Z,0
2017-11-23T03:49:31.839Z,0
2017-11-23T03:50:31.559Z,0
2017-11-23T03:51:31.818Z,0
2017-11-23T03:52:31.797Z,0
2017-11-23T03:53:31.785Z,0
2017-11-23T03:54:31.767Z,0
2017-11-23T03:55:31.751Z,0
2017-11-23T03:56:31.734Z,0
2017-11-23T03:57:31.476Z,0
2017-11-23T03:58:31.732Z,0
2017-11-23T03:59:31.697Z,0
2017-11-23T04:00:31.744Z,0
2017-11-23T04:01:31.685Z,0
2017-11-23T04:02:31.653Z,0
2017-11-23T04:03:31.663Z,0
2017-11-23T04:04:31.646Z,0
2017-11-23T04:05:31.643Z,0
2017-11-23T04:06:31.609Z,0
2017-11-23T04:07:31.610Z,0
2017-11-23T04:08:31.601Z,0
2017-11-23T04:09:31.563Z,0
2017-11-23T04:10:31.550Z,0
2017-11-23T04:11:31.542Z,0
2017-11-23T04:12:31.527Z,0
2017-11-23T04:13:31.519Z,0
2017-11-23T04:14:31.529Z,0
2017-11-23T04:15:31.483Z,0
2017-11-23T04:16:31.495Z,0
2017-11-23T04:17:31.454Z,0
2017-11-23T04:18:31.470Z,0
2017-11-23T04:19:31.438Z,0
2017-11-23T04:20:31.450Z,0
2017-11-23T04:21:31.159Z,0
2017-11-23T04:22:31.400Z,0
2017-11-23T04:23:31.381Z,0
2017-11-23T04:24:31.391Z,0
2017-11-23T04:25:31.347Z,0
2017-11-23T04:26:31.363Z,0
2017-11-23T04:27:31.355Z,0
2017-11-23T04:28:31.325Z,0
2017-11-23T04:29:31.296Z,0
2017-11-23T04:30:31.306Z,0
2017-11-23T04:31:31.264Z,0
2017-11-23T04:32:31.262Z,0
2017-11-23T04:33:31.253Z,0
2017-11-23T04:34:31.253Z,0
2017-11-23T04:35:31.215Z,0
2017-11-23T04:36:31.250Z,0
2017-11-23T04:37:31.227Z,0
2017-11-23T04:38:31.205Z,0
2017-11-23T04:39:31.201Z,0
2017-11-23T04:40:31.147Z,0
2017-11-23T04:41:31.137Z,0
2017-11-23T04:42:30.889Z,0
2017-11-23T04:43:30.877Z,0
2017-11-23T04:44:30.867Z,0
2017-11-23T04:45:31.108Z,0
2017-11-23T04:46:31.076Z,0
2017-11-23T04:47:31.067Z,0
2017-11-23T04:48:31.076Z,0
2017-11-23T04:49:31.054Z,0
2017-11-23T04:50:31.027Z,0
2017-11-23T04:51:31.036Z,0
2017-11-23T04:52:30.996Z,0
2017-11-23T04:53:30.990Z,0
2017-11-23T04:54:30.995Z,0
2017-11-23T04:55:30.961Z,0
2017-11-23T04:56:30.947Z,0
2017-11-23T04:57:30.938Z,0
2017-11-23T04:58:30.922Z,0
2017-11-23T04:59:31.041Z,0
2017-11-23T05:00:30.904Z,0
2017-11-23T05:01:30.632Z,0
2017-11-23T05:02:30.878Z,0
2017-11-23T05:03:30.628Z,0
2017-11-23T05:04:30.829Z,0
2017-11-23T05:05:30.828Z,0
2017-11-23T05:06:30.831Z,0
2017-11-23T05:07:30.797Z,0
2017-11-23T05:08:30.816Z,0
2017-11-23T05:09:30.777Z,0
2017-11-23T05:10:30.505Z,0
2017-11-23T05:11:30.479Z,0
2017-11-23T05:12:30.727Z,0
2017-11-23T05:13:30.740Z,0
2017-11-23T05:14:30.750Z,0
2017-11-23T05:15:30.723Z,0
2017-11-23T05:16:30.711Z,0
2017-11-23T05:17:30.684Z,0
2017-11-23T05:18:30.684Z,0
2017-11-23T05:19:30.384Z,0
2017-11-23T05:20:30.628Z,0
2017-11-23T05:21:30.345Z,0
2017-11-23T05:22:30.617Z,0
2017-11-23T05:23:30.575Z,0
2017-11-23T05:24:30.576Z,0
2017-11-23T05:25:30.573Z,0
2017-11-23T05:26:30.554Z,0
2017-11-23T05:27:30.527Z,0
2017-11-23T05:28:30.563Z,0
2017-11-23T05:29:30.500Z,0
2017-11-23T05:30:30.530Z,0
2017-11-23T05:31:30.519Z,0
2017-11-23T05:32:30.470Z,0
2017-11-23T05:33:30.203Z,0
2017-11-23T05:34:30.426Z,0
2017-11-23T05:35:30.447Z,0
2017-11-23T05:36:30.411Z,0
2017-11-23T05:37:30.415Z,0
2017-11-23T05:38:30.125Z,0
2017-11-23T05:39:30.378Z,0
2017-11-23T05:40:30.351Z,0
2017-11-23T05:41:30.360Z,0
2017-11-23T05:42:30.340Z,0
2017-11-23T05:43:30.326Z,0
2017-11-23T05:44:30.350Z,0
2017-11-23T05:45:30.296Z,0
2017-11-23T05:46:30.291Z,0
2017-11-23T05:47:30.283Z,0
2017-11-23T05:48:29.974Z,0
2017-11-23T05:49:30.250Z,0
2017-11-23T05:50:30.225Z,0
2017-11-23T05:51:29.954Z,0
2017-11-23T05:52:30.219Z,0
2017-11-23T05:53:30.234Z,0
2017-11-23T05:54:30.172Z,0
2017-11-23T05:55:29.905Z,0
2017-11-23T05:56:29.888Z,0
2017-11-23T05:57:30.141Z,0
2017-11-23T05:58:30.096Z,0
2017-11-23T05:59:30.112Z,0
2017-11-23T06:00:30.102Z,0
2017-11-23T06:01:30.072Z,0
2017-11-23T06:02:30.051Z,0
2017-11-23T06:03:30.021Z,0
2017-11-23T06:04:30.044Z,0
2017-11-23T06:05:30.007Z,0
2017-11-23T06:06:30.023Z,0
2017-11-23T06:07:29.992Z,0
2017-11-23T06:08:29.984Z,0
2017-11-23T06:09:29.995Z,0
2017-11-23T06:10:29.444Z,0
2017-11-23T06:11:29.956Z,0
2017-11-23T06:12:29.655Z,0
2017-11-23T06:13:29.937Z,0
2017-11-23T06:14:29.897Z,0
2017-11-23T06:15:29.624Z,0
2017-11-23T06:16:29.891Z,0
2017-11-23T06:17:29.594Z,0
2017-11-23T06:18:29.581Z,0
2017-11-23T06:19:29.816Z,0
2017-11-23T06:20:29.554Z,0
2017-11-23T06:21:29.810Z,0
2017-11-23T06:22:29.558Z,0
2017-11-23T06:23:29.781Z,0
2017-11-23T06:24:29.781Z,0
2017-11-23T06:25:29.795Z,0
2017-11-23T06:26:29.749Z,0
2017-11-23T06:27:29.720Z,0
2017-11-23T06:28:29.731Z,0
2017-11-23T06:29:29.706Z,0
2017-11-23T06:30:29.700Z,0
2017-11-23T06:31:29.649Z,5
2017-11-23T06:32:29.663Z,5
2017-11-23T06:33:29.647Z,5
2017-11-23T06:34:29.650Z,5
2017-11-23T06:35:29.623Z,5
2017-11-23T06:36:29.353Z,5
2017-11-23T06:37:29.607Z,5
2017-11-23T06:38:29.588Z,5
2017-11-23T06:39:29.565Z,10
2017-11-23T06:40:29.565Z,10
2017-11-23T06:41:29.532Z,10
2017-11-23T06:42:29.544Z,10
2017-11-23T06:43:29.526Z,15
2017-11-23T06:44:29.521Z,15
2017-11-23T06:45:29.501Z,15
2017-11-23T06:46:29.485Z,15
2017-11-23T06:47:29.483Z,15
2017-11-23T06:48:29.453Z,20
2017-11-23T06:49:29.462Z,20
2017-11-23T06:50:29.206Z,20
2017-11-23T06:51:29.420Z,20
2017-11-23T06:52:29.140Z,25
2017-11-23T06:53:29.174Z,25
2017-11-23T06:54:29.445Z,25
2017-11-23T06:55:29.339Z,30
2017-11-23T06:56:29.376Z,30
2017-11-23T06:57:29.354Z,35
2017-11-23T06:58:29.337Z,35
2017-11-23T06:59:29.780Z,40
2017-11-23T07:00:29.629Z,40
2017-11-23T07:01:29.278Z,45
2017-11-23T07:02:29.282Z,45
2017-11-23T07:03:29.063Z,50
2017-11-23T07:04:29.447Z,50
2017-11-23T07:05:29.308Z,55
2017-11-23T07:06:29.229Z,60
2017-11-23T07:07:28.952Z,60
2017-11-23T07:08:29.230Z,60
2017-11-23T07:09:29.013Z,60
2017-11-23T07:10:28.693Z,65
2017-11-23T07:11:28.967Z,65
2017-11-23T07:12:29.435Z,70
2017-11-23T07:13:29.131Z,70
2017-11-23T07:14:29.142Z,75
2017-11-23T07:15:28.838Z,75
2017-11-23T07:16:29.281Z,80
2017-11-23T07:17:28.847Z,80
2017-11-23T07:18:29.081Z,85
2017-11-23T07:19:29.056Z,90
2017-11-23T07:20:29.059Z,90
2017-11-23T07:21:29.025Z,95
2017-11-23T07:22:29.038Z,95
2017-11-23T07:23:29.255Z,100
2017-11-23T07:24:28.795Z,100
2017-11-23T07:25:29.063Z,105
2017-11-23T07:26:28.850Z,105
2017-11-23T07:27:29.059Z,105
2017-11-23T07:28:29.016Z,105
2017-11-23T07:29:28.919Z,110
2017-11-23T07:30:28.901Z,110
2017-11-23T07:31:28.883Z,110
2017-11-23T07:32:28.881Z,110
2017-11-23T07:33:28.871Z,110
2017-11-23T07:34:28.882Z,115
2017-11-23T07:35:28.802Z,120
2017-11-23T07:36:28.847Z,120
2017-11-23T07:37:28.858Z,120
2017-11-23T07:38:28.837Z,125
2017-11-23T07:39:28.806Z,125
2017-11-23T07:40:28.784Z,125
2017-11-23T07:41:28.757Z,125
2017-11-23T07:42:28.720Z,130
2017-11-23T07:43:28.758Z,130
2017-11-23T07:44:28.719Z,130
2017-11-23T07:45:28.734Z,130
2017-11-23T07:46:28.697Z,130
2017-11-23T07:47:28.184Z,130
2017-11-23T07:48:28.674Z,130
2017-11-23T07:49:28.679Z,130
2017-11-23T07:50:28.671Z,135
2017-11-23T07:51:28.650Z,135
2017-11-23T07:52:28.635Z,140
2017-11-23T07:53:28.611Z,140
2017-11-23T07:54:28.381Z,140
2017-11-23T07:55:28.611Z,140
2017-11-23T07:56:28.325Z,140
2017-11-23T07:57:28.604Z,140
2017-11-23T07:58:28.569Z,140
2017-11-23T07:59:28.324Z,145
2017-11-23T08:00:28.299Z,145
2017-11-23T08:01:28.549Z,145
2017-11-23T08:02:28.252Z,145
2017-11-23T08:03:28.541Z,145
2017-11-23T08:04:28.513Z,145
2017-11-23T08:05:28.475Z,145
2017-11-23T08:06:28.525Z,145
2017-11-23T08:07:28.246Z,145
2017-11-23T08:08:28.469Z,145
2017-11-23T08:09:28.499Z,145
2017-11-23T08:10:28.475Z,145
2017-11-23T08:11:28.204Z,145
2017-11-23T08:12:28.427Z,145
2017-11-23T08:13:28.202Z,145
2017-11-23T08:14:28.424Z,150
2017-11-23T08:15:28.104Z,150
2017-11-23T08:16:28.426Z,150
2017-11-23T08:17:28.405Z,150
2017-11-23T08:18:28.376Z,150
2017-11-23T08:19:28.376Z,150
2017-11-23T08:20:28.321Z,150
2017-11-23T08:21:28.398Z,145
2017-11-23T08:22:28.335Z,145
2017-11-23T08:23:28.321Z,150
2017-11-23T08:24:28.311Z,155
2017-11-23T08:25:28.304Z,155
2017-11-23T08:26:28.265Z,160
2017-11-23T08:27:28.217Z,165
2017-11-23T08:28:28.248Z,165
2017-11-23T08:29:27.960Z,175
2017-11-23T08:30:28.213Z,180
2017-11-23T08:31:28.249Z,180
2017-11-23T08:32:28.225Z,190
2017-11-23T08:33:28.217Z,185
2017-11-23T08:34:28.195Z,185
2017-11-23T08:35:28.183Z,185
2017-11-23T08:36:28.151Z,185
2017-11-23T08:37:28.386Z,180
2017-11-23T08:38:28.121Z,180
2017-11-23T08:39:28.152Z,180
2017-11-23T08:40:28.163Z,180
2017-11-23T08:41:28.090Z,180
2017-11-23T08:42:28.078Z,180
2017-11-23T08:43:27.852Z,180
2017-11-23T08:44:27.801Z,180
2017-11-23T08:45:28.085Z,180
2017-11-23T08:46:28.057Z,180
2017-11-23T08:47:28.094Z,180
2017-11-23T08:48:27.823Z,180
2017-11-23T08:49:28.082Z,180
2017-11-23T08:50:27.507Z,180
2017-11-23T08:51:28.096Z,175
2017-11-23T08:52:28.335Z,175
2017-11-23T08:53:28.043Z,180
2017-11-23T08:54:27.516Z,185
2017-11-23T08:55:28.016Z,185
2017-11-23T08:56:27.953Z,185
2017-11-23T08:57:28.126Z,190
2017-11-23T08:58:28.100Z,190
2017-11-23T08:59:28.156Z,190
2017-11-23T09:00:27.865Z,195
2017-11-23T09:01:28.078Z,200
2017-11-23T09:02:28.003Z,200
2017-11-23T09:03:28.002Z,200
2017-11-23T09:04:27.922Z,200
2017-11-23T09:05:27.935Z,200
2017-11-23T09:06:27.357Z,200
2017-11-23T09:07:27.934Z,195
2017-11-23T09:08:27.869Z,195
2017-11-23T09:09:27.882Z,190
2017-11-23T09:10:27.829Z,190
2017-11-23T09:11:27.602Z,195
2017-11-23T09:12:27.837Z,195
2017-11-23T09:13:27.882Z,195
2017-11-23T09:14:27.816Z,200
2017-11-23T09:15:28.320Z,205
2017-11-23T09:16:27.816Z,210
2017-11-23T09:17:28.592Z,210
2017-11-23T09:18:27.809Z,215
2017-11-23T09:19:28.015Z,215
2017-11-23T09:20:27.744Z,220
2017-11-23T09:21:27.715Z,220
2017-11-23T09:22:27.533Z,215
2017-11-23T09:23:27.748Z,215
2017-11-23T09:24:27.738Z,215
2017-11-23T09:25:27.826Z,215
2017-11-23T09:26:27.833Z,220
2017-11-23T09:27:27.786Z,225
2017-11-23T09:28:27.226Z,235
2017-11-23T09:29:27.719Z,230
2017-11-23T09:30:27.676Z,235
2017-11-23T09:31:27.653Z,235
2017-11-23T09:32:27.387Z,240
2017-11-23T09:33:27.599Z,240
2017-11-23T09:34:27.641Z,240
2017-11-23T09:35:27.602Z,240
2017-11-23T09:36:27.613Z,240
2017-11-23T09:37:27.592Z,240
2017-11-23T09:38:27.661Z,240
2017-11-23T09:39:27.298Z,235
2017-11-23T09:40:27.830Z,235
2017-11-23T09:41:27.313Z,240
2017-11-23T09:42:27.543Z,240
2017-11-23T09:43:27.549Z,235
2017-11-23T09:44:27.271Z,240
2017-11-23T09:45:27.521Z,240
2017-11-23T09:46:27.594Z,235
2017-11-23T09:47:27.217Z,235
2017-11-23T09:48:27.499Z,235
2017-11-23T09:49:27.228Z,230
2017-11-23T09:50:27.195Z,230
2017-11-23T09:51:27.497Z,230
2017-11-23T09:52:27.439Z,225
2017-11-23T09:53:27.463Z,225
2017-11-23T09:54:27.451Z,225
2017-11-23T09:55:27.469Z,225
2017-11-23T09:56:27.415Z,225
2017-11-23T09:57:26.896Z,225
2017-11-23T09:58:27.382Z,225
2017-11-23T09:59:27.402Z,220
2017-11-23T10:00:27.433Z,220
2017-11-23T10:01:27.368Z,225
2017-11-23T10:02:27.384Z,225
2017-11-23T10:03:27.126Z,225
2017-11-23T10:04:27.495Z,225
2017-11-23T10:05:27.350Z,220
2017-11-23T10:06:27.372Z,220
2017-11-23T10:07:27.321Z,215
2017-11-23T10:08:27.041Z,215
2017-11-23T10:09:27.321Z,215
2017-11-23T10:10:27.356Z,215
2017-11-23T10:11:27.304Z,210
2017-11-23T10:12:27.506Z,210
2017-11-23T10:13:26.996Z,205
2017-11-23T10:14:26.752Z,205
2017-11-23T10:15:27.288Z,205
2017-11-23T10:16:27.244Z,205
2017-11-23T10:17:27.295Z,210
2017-11-23T10:18:27.228Z,205
2017-11-23T10:19:26.943Z,205
2017-11-23T10:20:26.959Z,205
2017-11-23T10:21:27.206Z,200
2017-11-23T10:22:26.964Z,200
2017-11-23T10:23:27.212Z,200
2017-11-23T10:24:27.220Z,195
2017-11-23T10:25:27.263Z,190
2017-11-23T10:26:27.199Z,185
2017-11-23T10:27:27.225Z,180
2017-11-23T10:28:27.177Z,180
2017-11-23T10:29:27.177Z,180
2017-11-23T10:30:27.222Z,180
2017-11-23T10:31:26.899Z,180
2017-11-23T10:32:27.144Z,175
2017-11-23T10:33:27.642Z,175
2017-11-23T10:34:27.116Z,180
2017-11-23T10:35:27.121Z,180
2017-11-23T10:36:27.136Z,185
2017-11-23T10:37:26.579Z,185
2017-11-23T10:38:26.584Z,185
2017-11-23T10:39:26.833Z,190
2017-11-23T10:40:27.149Z,190
2017-11-23T10:41:27.126Z,190
2017-11-23T10:42:26.797Z,190
2017-11-23T10:43:27.154Z,190
2017-11-23T10:44:27.206Z,185
2017-11-23T10:45:26.940Z,190
2017-11-23T10:46:27.081Z,190
2017-11-23T10:47:27.631Z,195
2017-11-23T10:48:26.820Z,205
2017-11-23T10:49:26.826Z,200
2017-11-23T10:50:26.867Z,205
2017-11-23T10:51:26.851Z,210
2017-11-23T10:52:26.863Z,210
2017-11-23T10:53:26.793Z,215
2017-11-23T10:54:27.594Z,220
2017-11-23T10:55:27.069Z,220
2017-11-23T10:56:27.001Z,220
2017-11-23T10:57:27.044Z,215
2017-11-23T10:58:27.056Z,210
2017-11-23T10:59:27.204Z,210
2017-11-23T11:00:26.762Z,210
2017-11-23T11:01:26.998Z,205
2017-11-23T11:02:27.294Z,210
2017-11-23T11:03:27.162Z,215
2017-11-23T11:04:27.004Z,215
2017-11-23T11:05:27.265Z,220
2017-11-23T11:06:26.975Z,215
2017-11-23T11:07:26.734Z,215
2017-11-23T11:08:26.732Z,215
2017-11-23T11:09:26.698Z,215
2017-11-23T11:10:26.678Z,215
2017-11-23T11:11:26.983Z,220
2017-11-23T11:12:27.559Z,220
2017-11-23T11:13:27.253Z,225
2017-11-23T11:14:26.648Z,225
2017-11-23T11:15:26.929Z,230
2017-11-23T11:16:26.857Z,235
2017-11-23T11:17:26.292Z,240
2017-11-23T11:18:26.818Z,240
2017-11-23T11:19:26.493Z,235
2017-11-23T11:20:26.830Z,235
2017-11-23T11:21:26.803Z,230
2017-11-23T11:22:26.777Z,235
2017-11-23T11:23:26.868Z,235
2017-11-23T11:24:27.048Z,235
2017-11-23T11:25:26.526Z,235
2017-11-23T11:26:26.881Z,235
2017-11-23T11:27:26.786Z,235
2017-11-23T11:28:26.690Z,240
2017-11-23T11:29:26.449Z,240
2017-11-23T11:30:26.704Z,245
2017-11-23T11:31:26.450Z,250
2017-11-23T11:32:26.393Z,250
2017-11-23T11:33:26.672Z,250
2017-11-23T11:34:26.717Z,250
2017-11-23T11:35:26.667Z,245
2017-11-23T11:36:26.416Z,245
2017-11-23T11:37:26.642Z,245
2017-11-23T11:38:26.669Z,250
2017-11-23T11:39:26.992Z,250
2017-11-23T11:40:26.435Z,245
2017-11-23T11:41:26.361Z,240
2017-11-23T11:42:26.368Z,240
2017-11-23T11:43:26.641Z,240
2017-11-23T11:44:26.950Z,235
2017-11-23T11:45:26.678Z,230
2017-11-23T11:46:26.669Z,230
2017-11-23T11:47:26.693Z,235
2017-11-23T11:48:26.691Z,235
2017-11-23T11:49:26.652Z,230
2017-11-23T11:50:26.585Z,230
2017-11-23T11:51:26.563Z,230
2017-11-23T11:52:26.268Z,230
2017-11-23T11:53:26.279Z,230
2017-11-23T11:54:26.534Z,225
2017-11-23T11:55:26.525Z,225
2017-11-23T11:56:26.493Z,220
2017-11-23T11:57:26.488Z,215
2017-11-23T11:58:26.478Z,215
2017-11-23T11:59:26.496Z,215
2017-11-23T12:00:26.476Z,215
2017-11-23T12:01:26.469Z,215
2017-11-23T12:02:26.195Z,220
2017-11-23T12:03:26.485Z,225
2017-11-23T12:04:26.428Z,225
2017-11-23T12:05:26.457Z,220
2017-11-23T12:06:26.156Z,220
2017-11-23T12:07:26.472Z,220
2017-11-23T12:08:26.468Z,215
2017-11-23T12:09:26.449Z,215
2017-11-23T12:10:26.464Z,210
2017-11-23T12:11:26.161Z,205
2017-11-23T12:12:26.393Z,200
2017-11-23T12:13:26.405Z,200
2017-11-23T12:14:26.171Z,200
2017-11-23T12:15:26.143Z,200
2017-11-23T12:16:26.216Z,200
2017-11-23T12:17:26.452Z,200
2017-11-23T12:18:26.417Z,205
2017-11-23T12:19:26.923Z,205
2017-11-23T12:20:26.418Z,200
2017-11-23T12:21:26.413Z,200
2017-11-23T12:22:26.385Z,195
2017-11-23T12:23:26.455Z,190
2017-11-23T12:24:26.353Z,180
2017-11-23T12:25:26.346Z,175
2017-11-23T12:26:26.321Z,170
2017-11-23T12:27:26.333Z,170
2017-11-23T12:28:26.052Z,170
2017-11-23T12:29:26.500Z,165
2017-11-23T12:30:26.146Z,170
2017-11-23T12:31:26.316Z,175
2017-11-23T12:32:26.693Z,175
2017-11-23T12:33:25.993Z,170
2017-11-23T12:34:26.069Z,170
2017-11-23T12:35:26.337Z,165
2017-11-23T12:36:26.246Z,160
2017-11-23T12:37:26.278Z,160
2017-11-23T12:38:26.224Z,160
2017-11-23T12:39:26.583Z,160
2017-11-23T12:40:26.325Z,155
2017-11-23T12:41:26.290Z,155
2017-11-23T12:42:26.224Z,150
2017-11-23T12:43:26.201Z,140
2017-11-23T12:44:26.201Z,135
2017-11-23T12:45:26.219Z,125
2017-11-23T12:46:26.193Z,120
2017-11-23T12:47:25.907Z,120
2017-11-23T12:48:26.177Z,110
2017-11-23T12:49:25.688Z,100
2017-11-23T12:50:26.196Z,85
2017-11-23T12:51:26.152Z,70
2017-11-23T12:52:26.189Z,65
2017-11-23T12:53:26.162Z,60
2017-11-23T12:54:25.892Z,60
2017-11-23T12:55:26.132Z,60
2017-11-23T12:56:25.891Z,60
2017-11-23T12:57:25.878Z,60
2017-11-23T12:58:26.104Z,60
2017-11-23T12:59:26.089Z,60
2017-11-23T13:00:26.084Z,60
2017-11-23T13:01:25.846Z,60
2017-11-23T13:02:26.124Z,60
2017-11-23T13:03:25.829Z,60
2017-11-23T13:04:26.104Z,60
2017-11-23T13:05:25.779Z,60
2017-11-23T13:06:26.137Z,55
2017-11-23T13:07:26.085Z,55
2017-11-23T13:08:26.052Z,50
2017-11-23T13:09:26.073Z,50
2017-11-23T13:10:26.074Z,55
2017-11-23T13:11:25.740Z,55
2017-11-23T13:12:26.099Z,55
2017-11-23T13:13:25.761Z,55
2017-11-23T13:14:26.031Z,55
2017-11-23T13:15:25.787Z,55
2017-11-23T13:16:26.090Z,50
2017-11-23T13:17:26.185Z,50
2017-11-23T13:18:25.815Z,45
2017-11-23T13:19:25.706Z,40
2017-11-23T13:20:26.286Z,40
2017-11-23T13:21:26.040Z,40
2017-11-23T13:22:25.934Z,35
2017-11-23T13:23:26.011Z,35
2017-11-23T13:24:25.720Z,35
2017-11-23T13:25:25.929Z,35
2017-11-23T13:26:25.950Z,40
2017-11-23T13:27:25.662Z,40
2017-11-23T13:28:25.905Z,35
2017-11-23T13:29:25.617Z,35
2017-11-23T13:30:25.948Z,30
2017-11-23T13:31:25.887Z,30
2017-11-23T13:32:25.861Z,30
2017-11-23T13:33:26.215Z,30
2017-11-23T13:34:26.138Z,30
2017-11-23T13:35:25.622Z,30
2017-11-23T13:36:25.615Z,30
2017-11-23T13:37:25.847Z,30
2017-11-23T13:38:25.968Z,30
2017-11-23T13:39:26.124Z,25
2017-11-23T13:40:25.909Z,25
2017-11-23T13:41:25.581Z,25
2017-11-23T13:42:25.551Z,30
2017-11-23T13:43:25.533Z,30
2017-11-23T13:44:25.759Z,25
2017-11-23T13:45:25.514Z,25
2017-11-23T13:46:25.742Z,25
2017-11-23T13:47:25.801Z,25
2017-11-23T13:48:25.757Z,25
2017-11-23T13:49:25.491Z,25
2017-11-23T13:50:25.755Z,25
2017-11-23T13:51:25.482Z,25
2017-11-23T13:52:25.771Z,30
2017-11-23T13:53:25.749Z,30
2017-11-23T13:54:25.723Z,35
2017-11-23T13:55:25.703Z,35
2017-11-23T13:56:25.720Z,35
2017-11-23T13:57:25.940Z,35
2017-11-23T13:58:25.456Z,35
2017-11-23T13:59:25.766Z,30
2017-11-23T14:00:25.175Z,30
2017-11-23T14:01:25.684Z,30
2017-11-23T14:02:25.670Z,25
2017-11-23T14:03:25.694Z,25
2017-11-23T14:04:25.690Z,25
2017-11-23T14:05:25.620Z,25
2017-11-23T14:06:25.717Z,30
2017-11-23T14:07:25.103Z,30
2017-11-23T14:08:25.339Z,30
2017-11-23T14:09:25.592Z,30
2017-11-23T14:10:25.570Z,35
2017-11-23T14:11:25.583Z,35
2017-11-23T14:12:25.337Z,35
2017-11-23T14:13:25.570Z,35
2017-11-23T14:14:25.276Z,40
2017-11-23T14:15:25.567Z,45
2017-11-23T14:16:25.586Z,50
2017-11-23T14:17:25.605Z,50
2017-11-23T14:18:25.557Z,50